Time;durP1;ratioP1;P1;durP2;ratioP2;P2;SDS_P1;SDS_P2;PMS_P1;PMS_P2;Temp;Humidity;BMP_temperature;BMP_pressure;BME280_temperature;BME280_humidity;BME280_pressure;Samples;Min_cycle;Max_cycle;Signal;HPM_P1;HPM_P2
2021/09/20 00:01:42;;;;;;;2.53;1.60;;;;;;;22.49;75.90;100055.47;5071107;28;20090;-68
2021/09/20 00:04:08;;;;;;;5.82;1.67;;;;;;;22.58;75.87;100051.19;5070708;28;20032;-68
2021/09/20 00:06:33;;;;;;;3.92;1.65;;;;;;;22.61;75.57;100050.31;5070431;28;20090;-68
2021/09/20 00:08:59;;;;;;;1.90;1.80;;;;;;;22.59;75.69;100053.59;5070391;28;20059;-68
2021/09/20 00:11:24;;;;;;;4.15;2.17;;;;;;;22.56;75.78;100059.34;5070250;28;20043;-68
2021/09/20 00:13:50;;;;;;;4.90;2.97;;;;;;;22.40;75.81;100052.50;5070112;28;20028;-68
2021/09/20 00:16:16;;;;;;;7.50;3.72;;;;;;;22.32;75.17;100053.13;5070529;28;20035;-68
2021/09/20 00:18:41;;;;;;;4.35;3.58;;;;;;;22.35;75.68;100050.19;5099239;28;20427;-69
2021/09/20 00:21:07;;;;;;;4.40;3.47;;;;;;;22.33;75.99;100047.03;5093999;28;20031;-69
2021/09/20 00:23:32;;;;;;;6.03;3.30;;;;;;;22.23;76.14;100046.06;5094007;28;20122;-69
2021/09/20 00:25:58;;;;;;;3.95;2.97;;;;;;;22.28;75.20;100046.78;5112543;28;20027;-68
2021/09/20 00:28:25;;;;;;;4.85;2.95;;;;;;;22.21;75.20;100039.25;5094167;28;20023;-69
2021/09/20 00:30:51;;;;;;;6.72;2.90;;;;;;;22.31;76.18;100052.31;5094317;28;20020;-69
2021/09/20 00:33:18;;;;;;;3.92;3.00;;;;;;;22.32;76.45;100051.13;5094095;28;20447;-68
2021/09/20 00:35:44;;;;;;;4.47;3.03;;;;;;;22.34;75.88;100059.94;5094068;28;20024;-68
2021/09/20 00:38:10;;;;;;;5.00;2.78;;;;;;;22.34;75.83;100059.16;5095760;28;20024;-68
2021/09/20 00:40:35;;;;;;;5.70;3.17;;;;;;;22.32;76.05;100053.94;5095617;28;20405;-68
2021/09/20 00:43:02;;;;;;;6.03;3.15;;;;;;;22.33;76.69;100058.38;5095589;28;20032;-68
2021/09/20 00:45:30;;;;;;;3.13;2.42;;;;;;;22.37;76.68;100058.25;5095357;28;20020;-69
2021/09/20 00:47:56;;;;;;;4.97;2.75;;;;;;;22.38;75.94;100060.66;5095497;28;20031;-69
2021/09/20 00:50:22;;;;;;;2.95;2.35;;;;;;;22.30;75.94;100038.63;5095748;28;20034;-68
2021/09/20 00:52:48;;;;;;;4.28;2.55;;;;;;;22.41;75.49;100054.06;5078901;28;20158;-68
2021/09/20 00:55:14;;;;;;;3.92;2.25;;;;;;;22.34;75.42;100042.16;5095462;28;20055;-68
2021/09/20 00:57:43;;;;;;;2.70;2.45;;;;;;;22.33;75.40;100035.69;5095934;28;20032;-68
2021/09/20 01:00:09;;;;;;;4.80;2.55;;;;;;;22.41;75.01;100048.41;5095201;28;20036;-68
2021/09/20 01:02:35;;;;;;;4.88;2.78;;;;;;;22.47;75.61;100052.28;5093633;28;20035;-68
2021/09/20 01:05:00;;;;;;;3.70;2.90;;;;;;;22.41;75.79;100059.75;5094019;28;20023;-68
2021/09/20 01:07:26;;;;;;;3.78;3.20;;;;;;;22.27;77.16;100054.47;5112084;28;20038;-69
2021/09/20 01:09:53;;;;;;;4.43;3.60;;;;;;;22.32;77.64;100053.13;5112844;28;20043;-68
2021/09/20 01:12:18;;;;;;;4.10;3.28;;;;;;;22.21;77.93;100048.56;5093964;28;20089;-68
2021/09/20 01:14:44;;;;;;;4.93;4.10;;;;;;;22.12;77.86;100054.06;5094309;28;20024;-68
2021/09/20 01:17:09;;;;;;;5.88;4.03;;;;;;;22.07;78.44;100057.41;5093797;28;20424;-68
2021/09/20 01:19:35;;;;;;;6.70;3.92;;;;;;;22.23;77.25;100048.91;5093436;28;20044;-68
2021/09/20 01:22:09;;;;;;;4.85;3.38;;;;;;;22.09;76.96;100042.78;5094022;28;20071;-70
2021/09/20 01:24:34;;;;;;;4.25;2.90;;;;;;;22.05;77.57;100042.91;5113464;28;20071;-68
2021/09/20 01:27:04;;;;;;;5.22;3.33;;;;;;;21.96;78.51;100032.19;5097638;28;20058;-68
2021/09/20 01:29:30;;;;;;;3.33;2.00;;;;;;;21.77;76.53;100040.78;5116068;28;20028;-68
2021/09/20 01:31:58;;;;;;;3.08;2.75;;;;;;;21.88;76.28;100039.25;5116514;28;20020;-68
2021/09/20 01:34:25;;;;;;;3.17;2.20;;;;;;;21.81;75.32;100033.78;5098305;28;20370;-68
2021/09/20 01:36:54;;;;;;;2.83;1.98;;;;;;;21.93;74.73;100038.72;5097878;28;20034;-68
2021/09/20 01:39:24;;;;;;;3.22;2.50;;;;;;;22.15;74.94;100030.50;5116909;28;20103;-68
2021/09/20 01:41:51;;;;;;;4.47;2.75;;;;;;;22.01;75.59;100038.56;5116852;28;20024;-68
2021/09/20 01:44:17;;;;;;;6.15;3.00;;;;;;;21.81;76.89;100047.94;5081808;28;20035;-68
2021/09/20 01:46:44;;;;;;;4.82;3.10;;;;;;;21.68;78.37;100044.25;5099257;28;20035;-68
2021/09/20 01:49:10;;;;;;;4.10;2.97;;;;;;;21.66;78.51;100038.22;5098653;28;20019;-68
2021/09/20 01:51:39;;;;;;;8.65;3.38;;;;;;;21.56;78.68;100039.28;5098748;28;20408;-68
2021/09/20 01:54:05;;;;;;;3.40;2.88;;;;;;;21.71;77.86;100049.00;5098291;28;20119;-68
2021/09/20 01:56:31;;;;;;;6.97;3.75;;;;;;;21.58;78.67;100050.97;5116540;28;20032;-68
2021/09/20 01:58:57;;;;;;;5.82;3.03;;;;;;;21.43;78.76;100031.50;5116843;28;20041;-68
2021/09/20 02:01:23;;;;;;;3.70;3.30;;;;;;;21.45;79.17;100040.31;5098166;28;20031;-68
2021/09/20 02:03:50;;;;;;;3.40;2.90;;;;;;;21.54;79.14;100036.91;5098728;28;20035;-68
2021/09/20 02:06:19;;;;;;;4.15;2.95;;;;;;;21.51;79.56;100043.44;5098513;28;20036;-68
2021/09/20 02:08:44;;;;;;;4.65;3.22;;;;;;;21.53;80.03;100046.63;5098321;28;20027;-68
2021/09/20 02:11:13;;;;;;;5.25;3.10;;;;;;;21.45;78.60;100037.50;5098565;28;20118;-68
2021/09/20 02:13:39;;;;;;;5.30;2.92;;;;;;;21.60;78.57;100035.13;5082229;28;20043;-68
2021/09/20 02:16:05;;;;;;;4.78;2.80;;;;;;;21.55;78.89;100044.16;5097824;28;20466;-68
2021/09/20 02:18:31;;;;;;;6.85;2.72;;;;;;;21.51;78.18;100034.13;5097788;28;20371;-68
2021/09/20 02:20:56;;;;;;;4.45;2.90;;;;;;;21.62;76.64;100037.50;5097870;28;20057;-68
2021/09/20 02:23:22;;;;;;;5.90;3.00;;;;;;;21.53;77.78;100043.00;5097228;28;20044;-68
2021/09/20 02:25:48;;;;;;;5.38;3.05;;;;;;;21.46;77.55;100041.13;5116633;28;20026;-68
2021/09/20 02:28:14;;;;;;;3.55;2.55;;;;;;;21.56;77.00;100050.59;5097744;28;20124;-68
2021/09/20 02:30:40;;;;;;;6.38;2.88;;;;;;;21.52;77.21;100049.88;5115610;28;20031;-68
2021/09/20 02:33:06;;;;;;;6.43;3.15;;;;;;;21.59;75.13;100050.53;5097628;28;20032;-69
2021/09/20 02:35:31;;;;;;;4.63;2.22;;;;;;;21.25;74.41;100050.88;5097019;28;20035;-68
2021/09/20 02:37:57;;;;;;;5.88;1.88;;;;;;;21.11;73.24;100049.19;5097008;28;20081;-68
2021/09/20 02:40:23;;;;;;;4.88;1.90;;;;;;;21.08;73.70;100040.75;5097746;28;20053;-68
2021/09/20 02:42:49;;;;;;;6.97;2.50;;;;;;;21.01;71.83;100035.28;5097377;28;20031;-69
2021/09/20 02:45:16;;;;;;;2.83;1.23;;;;;;;21.04;67.09;100035.22;5097601;28;20032;-69
2021/09/20 02:47:42;;;;;;;6.57;2.15;;;;;;;21.15;69.48;100049.13;5115573;28;20032;-69
2021/09/20 02:50:09;;;;;;;4.00;1.20;;;;;;;21.13;68.66;100041.03;5097502;28;20024;-68
2021/09/20 02:52:35;;;;;;;3.22;1.60;;;;;;;21.20;69.97;100042.94;5097711;28;20027;-68
2021/09/20 02:55:00;;;;;;;5.00;1.65;;;;;;;21.25;69.18;100025.41;5097179;28;20567;-68
2021/09/20 02:57:26;;;;;;;3.10;1.73;;;;;;;21.22;69.80;100037.63;5115983;28;20038;-68
2021/09/20 02:59:52;;;;;;;6.40;1.77;;;;;;;21.31;71.07;100045.53;5097324;28;20036;-68
2021/09/20 03:02:18;;;;;;;5.93;2.80;;;;;;;21.26;69.33;100055.31;5097613;28;20042;-68
2021/09/20 03:04:46;;;;;;;4.47;1.65;;;;;;;21.15;68.35;100043.47;5097223;28;20023;-68
2021/09/20 03:07:12;;;;;;;2.28;1.33;;;;;;;21.19;69.49;100046.97;5097437;28;20039;-68
2021/09/20 03:09:37;;;;;;;2.92;1.77;;;;;;;21.34;70.79;100053.94;5096959;28;20031;-68
2021/09/20 03:12:03;;;;;;;6.35;2.90;;;;;;;21.30;69.31;100047.56;5097351;28;20034;-68
2021/09/20 03:14:29;;;;;;;3.72;1.40;;;;;;;21.38;66.94;100046.16;5115078;28;20059;-69
2021/09/20 03:16:54;;;;;;;6.80;1.40;;;;;;;21.50;67.80;100055.19;5096626;28;20020;-68
2021/09/20 03:19:20;;;;;;;3.33;1.73;;;;;;;21.36;68.66;100053.47;5096324;28;20049;-68
2021/09/20 03:21:45;;;;;;;3.90;2.00;;;;;;;21.45;69.69;100056.50;5096740;28;20054;-68
2021/09/20 03:24:12;;;;;;;5.38;1.38;;;;;;;21.53;67.31;100062.81;5096859;28;20023;-68
2021/09/20 03:26:39;;;;;;;8.65;2.47;;;;;;;21.49;66.60;100060.06;5097148;28;20030;-68
2021/09/20 03:29:05;;;;;;;1.75;0.82;;;;;;;21.20;67.85;100040.09;5096467;28;20028;-68
2021/09/20 03:31:33;;;;;;;5.20;1.70;;;;;;;21.34;66.99;100067.28;5096804;28;20072;-68
2021/09/20 03:33:59;;;;;;;4.88;2.03;;;;;;;21.23;66.18;100063.88;5114369;28;20028;-68
2021/09/20 03:36:24;;;;;;;6.97;1.10;;;;;;;21.27;66.01;100062.56;5096646;28;20022;-68
2021/09/20 03:38:50;;;;;;;6.35;1.23;;;;;;;21.30;65.66;100070.19;5096284;28;20028;-68
2021/09/20 03:41:24;;;;;;;6.28;2.05;;;;;;;21.40;65.84;100071.97;5096284;28;20055;-68
2021/09/20 03:43:49;;;;;;;4.55;1.55;;;;;;;21.39;65.53;100070.41;5096590;28;20028;-68
2021/09/20 03:46:15;;;;;;;5.57;1.40;;;;;;;21.49;65.32;100076.25;5096316;28;20500;-68
2021/09/20 03:48:40;;;;;;;5.00;1.52;;;;;;;21.43;64.38;100070.31;5095987;28;20030;-68
2021/09/20 03:51:06;;;;;;;5.15;1.17;;;;;;;21.50;63.76;100069.34;5114411;28;20058;-68
2021/09/20 03:53:33;;;;;;;4.22;1.13;;;;;;;21.44;65.21;100069.09;5096102;28;20031;-68
2021/09/20 03:55:59;;;;;;;4.15;1.48;;;;;;;21.34;64.78;100048.28;5096656;28;20083;-68
2021/09/20 03:58:25;;;;;;;6.07;1.30;;;;;;;21.28;66.36;100069.81;5096043;28;20367;-68
2021/09/20 04:00:50;;;;;;;6.95;2.00;;;;;;;21.24;66.33;100066.25;5096659;28;20031;-68
2021/09/20 04:03:16;;;;;;;6.00;2.30;;;;;;;21.19;66.95;100081.72;5095776;28;20081;-68
2021/09/20 04:05:42;;;;;;;11.80;3.67;;;;;;;21.23;67.20;100078.81;5096272;28;20024;-68
2021/09/20 04:08:09;;;;;;;5.70;2.20;;;;;;;21.16;66.74;100067.66;5113886;28;20031;-68
2021/09/20 04:10:34;;;;;;;6.97;2.10;;;;;;;21.19;68.78;100078.09;5113869;28;20047;-68
2021/09/20 04:13:00;;;;;;;6.60;2.22;;;;;;;21.10;66.69;100069.44;5095834;28;20527;-68
2021/09/20 04:15:25;;;;;;;5.72;2.05;;;;;;;21.25;66.62;100087.66;5096313;28;20024;-68
2021/09/20 04:17:51;;;;;;;5.30;1.42;;;;;;;21.28;65.80;100091.66;5095411;28;20398;-68
2021/09/20 04:20:19;;;;;;;8.60;1.95;;;;;;;21.05;66.68;100095.41;5095835;28;20114;-68
2021/09/20 04:22:45;;;;;;;6.38;2.25;;;;;;;20.92;66.68;100104.53;5096102;28;20032;-67
2021/09/20 04:25:11;;;;;;;4.38;1.52;;;;;;;21.12;65.88;100104.50;5096037;28;20390;-69
2021/09/20 04:27:37;;;;;;;5.97;1.45;;;;;;;21.08;66.38;100117.13;5095635;28;20031;-70
2021/09/20 04:30:04;;;;;;;5.85;2.00;;;;;;;21.12;66.00;100115.03;5095518;28;20031;-69
2021/09/20 04:32:30;;;;;;;4.53;1.73;;;;;;;20.98;66.69;100106.84;5095725;28;20089;-70
2021/09/20 04:34:55;;;;;;;6.95;1.83;;;;;;;21.06;67.77;100116.78;5095742;28;20035;-69
2021/09/20 04:37:21;;;;;;;14.95;4.05;;;;;;;21.10;66.86;100114.69;5095905;28;20028;-67
2021/09/20 04:39:47;;;;;;;5.35;1.55;;;;;;;21.03;66.86;100112.00;5096480;28;20024;-67
2021/09/20 04:42:13;;;;;;;6.80;1.92;;;;;;;21.09;65.75;100118.72;5095551;28;20035;-69
2021/09/20 04:44:42;;;;;;;6.55;1.50;;;;;;;21.04;65.94;100113.59;5114448;28;20055;-69
2021/09/20 04:47:07;;;;;;;7.10;1.80;;;;;;;20.92;66.78;100127.16;5095288;28;20111;-69
2021/09/20 04:49:33;;;;;;;3.40;1.35;;;;;;;20.82;67.69;100116.84;5096049;28;20127;-68
2021/09/20 04:51:59;;;;;;;5.32;1.42;;;;;;;20.92;68.12;100127.16;5095432;28;20047;-68
2021/09/20 04:54:25;;;;;;;4.82;1.05;;;;;;;21.00;66.65;100127.03;5113655;28;20050;-68
2021/09/20 04:56:53;;;;;;;5.15;2.08;;;;;;;21.01;68.15;100129.41;5095643;28;20458;-68
2021/09/20 04:59:19;;;;;;;4.88;1.67;;;;;;;20.97;65.19;100133.53;5096116;28;20028;-68
2021/09/20 05:01:44;;;;;;;5.10;1.48;;;;;;;20.93;65.95;100128.78;5099657;28;20039;-70
2021/09/20 05:04:10;;;;;;;5.43;1.40;;;;;;;20.99;66.68;100133.91;5099229;28;20469;-68
2021/09/20 05:06:36;;;;;;;8.23;2.58;;;;;;;20.97;66.68;100140.00;5099242;28;20028;-69
2021/09/20 05:09:03;;;;;;;8.15;2.05;;;;;;;21.15;66.15;100139.63;5117474;28;20020;-69
2021/09/20 05:11:29;;;;;;;3.95;2.05;;;;;;;21.08;67.58;100143.41;5099187;28;20093;-68
2021/09/20 05:13:54;;;;;;;3.72;1.45;;;;;;;21.00;67.88;100127.03;5099069;28;20065;-68
2021/09/20 05:16:20;;;;;;;5.97;1.58;;;;;;;21.45;65.42;100149.91;5099007;28;20023;-69
2021/09/20 05:18:46;;;;;;;5.53;1.90;;;;;;;22.03;64.48;100146.56;5098382;28;20058;-68
2021/09/20 05:21:11;;;;;;;3.35;1.35;;;;;;;22.56;62.39;100162.22;5116856;28;20059;-68
2021/09/20 05:23:37;;;;;;;6.82;1.70;;;;;;;23.04;59.88;100156.91;5098966;28;20031;-68
2021/09/20 05:26:04;;;;;;;7.60;1.67;;;;;;;23.67;58.07;100147.72;5099068;28;20065;-68
2021/09/20 05:28:29;;;;;;;4.30;1.67;;;;;;;24.20;56.51;100162.25;5098553;28;20031;-68
2021/09/20 05:30:55;;;;;;;6.00;1.77;;;;;;;24.78;53.07;100170.44;5098548;28;20038;-68
2021/09/20 05:33:21;;;;;;;3.67;1.40;;;;;;;25.01;52.82;100161.44;5116901;28;20023;-68
2021/09/20 05:35:46;;;;;;;6.13;2.25;;;;;;;25.47;52.01;100167.50;5098529;28;20084;-68
2021/09/20 05:38:14;;;;;;;4.75;2.58;;;;;;;25.88;50.60;100165.47;5098408;28;20114;-68
2021/09/20 05:40:41;;;;;;;5.28;1.60;;;;;;;26.20;49.54;100161.31;5098072;28;20039;-68
2021/09/20 05:43:07;;;;;;;5.80;1.98;;;;;;;26.62;48.11;100164.44;5097794;28;20173;-68
2021/09/20 05:45:32;;;;;;;5.28;1.38;;;;;;;27.02;47.03;100174.13;5097707;28;20073;-68
2021/09/20 05:48:01;;;;;;;2.97;0.98;;;;;;;27.27;45.89;100167.28;5097560;28;20057;-68
2021/09/20 05:50:27;;;;;;;5.78;1.52;;;;;;;27.66;45.18;100171.97;5097640;28;20032;-68
2021/09/20 05:52:54;;;;;;;5.82;1.27;;;;;;;28.12;44.78;100180.38;5098013;28;20073;-68
2021/09/20 05:55:20;;;;;;;5.90;1.67;;;;;;;28.38;43.75;100177.09;5080744;28;20054;-70
2021/09/20 05:57:46;;;;;;;7.38;1.90;;;;;;;28.85;42.22;100178.34;5097310;28;20055;-68
2021/09/20 06:00:13;;;;;;;2.92;1.60;;;;;;;29.08;41.94;100177.53;5097679;28;20035;-69
2021/09/20 06:02:40;;;;;;;1.27;1.00;;;;;;;29.44;40.16;100187.06;5080815;28;20027;-69
2021/09/20 06:05:07;;;;;;;3.47;1.48;;;;;;;29.55;39.58;100183.63;5116381;28;20042;-68
2021/09/20 06:07:33;;;;;;;3.10;1.10;;;;;;;29.69;39.77;100192.22;5097016;28;20031;-69
2021/09/20 06:09:59;;;;;;;5.93;1.40;;;;;;;29.81;38.93;100190.31;5098222;28;20114;-69
2021/09/20 06:12:24;;;;;;;3.63;1.30;;;;;;;30.00;38.03;100194.56;5097682;28;20031;-69
2021/09/20 06:14:50;;;;;;;1.73;1.00;;;;;;;30.09;38.08;100181.38;5097410;28;20027;-68
2021/09/20 06:17:15;;;;;;;2.00;1.10;;;;;;;30.00;38.18;100185.97;5097267;28;20028;-69
2021/09/20 06:19:41;;;;;;;4.28;1.20;;;;;;;29.96;38.34;100188.22;5096965;28;20410;-69
2021/09/20 06:22:06;;;;;;;2.35;1.08;;;;;;;30.35;37.96;100187.28;5097822;28;20028;-68
2021/09/20 06:24:32;;;;;;;6.45;1.73;;;;;;;29.99;37.98;100195.84;5097718;28;20413;-69
2021/09/20 06:26:58;;;;;;;11.68;1.83;;;;;;;29.84;38.62;100197.94;5097523;28;20531;-69
2021/09/20 06:29:26;;;;;;;2.97;1.38;;;;;;;29.87;38.61;100199.81;5097347;28;20028;-68
2021/09/20 06:31:51;;;;;;;3.67;1.25;;;;;;;29.49;39.89;100197.81;5097808;28;20088;-69
2021/09/20 06:34:17;;;;;;;2.40;1.13;;;;;;;29.92;38.60;100204.84;5097106;28;20028;-69
2021/09/20 06:36:43;;;;;;;4.43;2.53;;;;;;;29.61;38.84;100199.63;5115485;28;20024;-68
2021/09/20 06:39:09;;;;;;;3.70;1.50;;;;;;;29.50;39.60;100193.66;5096799;28;20039;-68
2021/09/20 06:41:34;;;;;;;5.80;1.92;;;;;;;29.15;41.16;100200.06;5096960;28;20020;-68
2021/09/20 06:44:02;;;;;;;4.25;1.95;;;;;;;29.11;39.66;100178.63;5096820;28;20466;-69
2021/09/20 06:46:28;;;;;;;4.32;1.42;;;;;;;29.23;39.56;100180.41;5097615;28;20034;-68
2021/09/20 06:48:58;;;;;;;5.18;2.05;;;;;;;28.55;40.90;100184.00;5096679;28;20028;-68
2021/09/20 06:51:24;;;;;;;6.40;1.67;;;;;;;28.44;41.02;100192.31;5096676;28;20031;-68
2021/09/20 06:53:50;;;;;;;5.32;2.58;;;;;;;28.64;41.38;100185.97;5097325;28;20035;-68
2021/09/20 06:56:17;;;;;;;4.38;2.42;;;;;;;28.22;41.75;100180.31;5096399;28;20076;-67
2021/09/20 06:58:43;;;;;;;4.50;2.13;;;;;;;28.12;42.67;100186.09;5115102;28;20024;-68
2021/09/20 07:01:08;;;;;;;7.95;2.67;;;;;;;28.79;40.89;100188.91;5097111;28;20027;-68
2021/09/20 07:03:34;;;;;;;4.57;1.60;;;;;;;28.31;42.36;100180.28;5096083;28;20491;-68
2021/09/20 07:06:00;;;;;;;6.82;2.22;;;;;;;27.79;42.91;100168.13;5095820;28;20072;-68
2021/09/20 07:08:25;;;;;;;6.88;2.55;;;;;;;27.81;43.62;100186.41;5115250;28;20110;-68
2021/09/20 07:10:54;;;;;;;2.95;1.85;;;;;;;27.66;44.39;100182.59;5096314;28;20089;-68
2021/09/20 07:13:19;;;;;;;5.63;2.10;;;;;;;26.66;46.35;100186.31;5114080;28;20441;-68
2021/09/20 07:15:45;;;;;;;8.25;3.08;;;;;;;27.08;45.38;100198.72;5096119;28;20028;-68
2021/09/20 07:18:11;;;;;;;5.18;1.88;;;;;;;26.97;45.76;100172.69;5095556;28;20059;-68
2021/09/20 07:20:37;;;;;;;3.97;1.70;;;;;;;26.28;47.88;100184.63;5114304;28;20046;-68
2021/09/20 07:23:03;;;;;;;4.97;2.17;;;;;;;26.17;48.38;100196.50;5095918;28;20088;-68
2021/09/20 07:25:28;;;;;;;4.00;1.15;;;;;;;26.19;48.11;100196.81;5096070;28;20497;-68
2021/09/20 07:27:54;;;;;;;4.47;1.42;;;;;;;27.80;44.23;100201.16;5096899;28;20050;-68
2021/09/20 07:30:20;;;;;;;4.00;1.25;;;;;;;28.49;42.66;100200.22;5114396;28;20513;-69
2021/09/20 07:32:51;;;;;;;3.30;1.50;;;;;;;28.08;43.08;100202.66;5096519;28;20031;-67
2021/09/20 07:35:18;;;;;;;4.30;1.63;;;;;;;27.29;44.95;100193.31;5114629;28;20047;-68
2021/09/20 07:37:48;;;;;;;3.03;1.60;;;;;;;26.70;46.95;100198.38;5095799;28;20027;-68
2021/09/20 07:40:15;;;;;;;5.70;1.40;;;;;;;26.67;47.57;100205.03;5096649;28;20024;-68
2021/09/20 07:42:41;;;;;;;3.05;1.30;;;;;;;27.78;44.30;100206.56;5096232;28;20359;-68
2021/09/20 07:45:08;;;;;;;3.40;1.45;;;;;;;28.96;41.93;100210.09;5114624;28;20058;-68
2021/09/20 07:47:34;;;;;;;7.05;1.52;;;;;;;28.61;42.27;100216.38;5113967;28;20053;-68
2021/09/20 07:50:00;;;;;;;2.58;1.10;;;;;;;28.92;41.48;100206.59;5079184;28;20062;-68
2021/09/20 07:52:26;;;;;;;3.85;1.13;;;;;;;29.78;39.90;100224.97;5095935;28;20028;-68
2021/09/20 07:54:52;;;;;;;2.85;1.10;;;;;;;30.22;38.76;100228.56;5095932;28;20032;-69
2021/09/20 07:57:18;;;;;;;2.17;1.38;;;;;;;30.21;38.17;100224.13;5095851;28;20031;-68
2021/09/20 07:59:44;;;;;;;2.85;2.00;;;;;;;30.33;38.05;100224.28;5095730;28;20359;-68
2021/09/20 08:02:10;;;;;;;5.38;1.73;;;;;;;31.29;35.89;100230.81;5113662;28;20031;-68
2021/09/20 08:04:36;;;;;;;3.20;1.00;;;;;;;31.04;36.48;100232.31;5095686;28;20024;-68
2021/09/20 08:07:01;;;;;;;3.20;1.25;;;;;;;29.33;40.33;100226.97;5095658;28;20055;-68
2021/09/20 08:09:27;;;;;;;1.65;1.10;;;;;;;29.49;40.30;100238.75;5095903;28;20053;-68
2021/09/20 08:11:55;;;;;;;2.47;0.98;;;;;;;30.53;38.40;100241.56;5096004;28;20114;-68
2021/09/20 08:14:21;;;;;;;4.45;1.58;;;;;;;31.10;37.21;100238.13;5078928;28;20348;-68
2021/09/20 08:16:46;;;;;;;3.40;1.20;;;;;;;31.32;36.86;100236.84;5078289;28;20026;-68
2021/09/20 08:19:15;;;;;;;3.22;1.20;;;;;;;30.05;38.50;100253.31;5090990;28;20053;-68
2021/09/20 08:21:41;;;;;;;5.25;1.65;;;;;;;30.07;39.43;100249.94;5113140;28;20095;-68
2021/09/20 08:24:06;;;;;;;3.75;1.20;;;;;;;29.85;39.66;100254.00;5094687;28;20039;-69
2021/09/20 08:26:32;;;;;;;5.32;1.75;;;;;;;29.54;40.18;100257.38;5094708;28;20106;-68
2021/09/20 08:28:57;;;;;;;3.28;1.20;;;;;;;29.58;40.54;100257.19;5094421;28;20024;-68
2021/09/20 08:31:23;;;;;;;2.92;1.33;;;;;;;28.97;41.83;100266.09;5094976;28;20123;-68
2021/09/20 08:33:48;;;;;;;4.30;1.60;;;;;;;28.50;42.89;100258.25;5094949;28;20475;-68
2021/09/20 08:36:14;;;;;;;4.88;1.63;;;;;;;28.59;42.42;100270.44;5098589;28;20554;-67
2021/09/20 08:38:40;;;;;;;3.45;1.50;;;;;;;28.80;41.57;100256.31;5098382;28;20500;-68
2021/09/20 08:41:06;;;;;;;4.55;1.30;;;;;;;28.70;42.20;100264.97;5098412;28;20019;-68
2021/09/20 08:43:32;;;;;;;2.92;1.30;;;;;;;29.47;41.12;100272.06;5097917;28;20163;-68
2021/09/20 08:46:03;;;;;;;4.80;1.98;;;;;;;29.13;41.41;100268.50;5098095;28;20077;-68
2021/09/20 08:48:37;;;;;;;2.30;1.25;;;;;;;30.01;40.08;100272.81;5098355;28;20509;-68
2021/09/20 08:51:03;;;;;;;1.80;1.02;;;;;;;29.78;40.16;100262.25;5098004;28;20024;-68
2021/09/20 08:53:31;;;;;;;4.28;1.40;;;;;;;30.28;38.67;100274.56;5116413;28;20035;-68
2021/09/20 08:55:58;;;;;;;6.45;1.38;;;;;;;29.22;40.20;100262.72;5097781;28;20077;-68
2021/09/20 08:58:24;;;;;;;10.52;2.72;;;;;;;29.60;40.38;100269.72;5115656;28;20024;-68
2021/09/20 09:00:50;;;;;;;4.00;1.17;;;;;;;30.10;39.01;100266.97;5116223;28;20027;-68
2021/09/20 09:03:24;;;;;;;2.97;1.10;;;;;;;31.19;36.87;100269.59;5097604;28;20031;-68
2021/09/20 09:05:51;;;;;;;3.60;1.08;;;;;;;31.34;35.94;100271.63;5115257;28;20493;-68
2021/09/20 09:08:19;;;;;;;3.42;0.85;;;;;;;30.51;37.27;100272.84;5097325;28;20028;-68
2021/09/20 09:10:59;;;;;;;3.15;1.30;;;;;;;31.22;36.75;100271.47;5097613;28;20030;-68
2021/09/20 09:13:40;;;;;;;1.67;0.95;;;;;;;31.65;36.63;100273.81;5097572;28;20467;-68
2021/09/20 09:16:17;;;;;;;4.90;1.30;;;;;;;32.32;34.98;100266.56;5097306;28;20081;-68
2021/09/20 09:19:19;;;;;;;2.50;1.17;;;;;;;31.43;35.45;100271.50;5048522;28;1391200;-68
2021/09/20 09:21:45;;;;;;;3.15;1.10;;;;;;;31.72;35.46;100279.88;4997783;28;20064;-68
2021/09/20 09:24:16;;;;;;;7.28;1.35;;;;;;;32.20;33.52;100275.63;5096317;28;20088;-68
2021/09/20 09:26:55;;;;;;;6.10;2.22;;;;;;;31.93;34.10;100268.34;5098833;28;20024;-68
2021/09/20 09:29:20;;;;;;;5.00;1.13;;;;;;;31.23;35.58;100278.81;5098176;28;20097;-68
2021/09/20 09:31:54;;;;;;;7.47;2.00;;;;;;;31.61;35.61;100276.91;5116937;28;20463;-69
2021/09/20 09:34:25;;;;;;;2.80;1.15;;;;;;;31.97;34.88;100278.34;5098329;28;20032;-68
2021/09/20 09:36:52;;;;;;;3.38;0.90;;;;;;;32.20;34.83;100273.53;5098891;28;20543;-68
2021/09/20 09:39:28;;;;;;;4.55;1.20;;;;;;;32.08;34.07;100269.78;5098729;28;20039;-68
2021/09/20 09:41:55;;;;;;;3.20;1.30;;;;;;;31.02;36.17;100282.97;5098345;28;20525;-68
2021/09/20 09:44:32;;;;;;;5.68;1.35;;;;;;;30.80;36.80;100280.59;5098244;28;20096;-69
2021/09/20 09:46:58;;;;;;;2.30;0.90;;;;;;;30.97;36.31;100277.94;5097873;28;20081;-69
2021/09/20 09:49:26;;;;;;;1.35;0.80;;;;;;;31.09;35.08;100262.44;5116766;28;20106;-69
2021/09/20 09:52:20;;;;;;;1.67;1.00;;;;;;;31.11;35.74;100265.59;5097922;28;20024;-69
2021/09/20 09:55:01;;;;;;;6.10;1.15;;;;;;;31.28;35.58;100281.00;5098705;28;20062;-68
2021/09/20 09:57:26;;;;;;;3.97;1.27;;;;;;;30.39;34.56;100233.78;5098234;28;20050;-69
2021/09/20 10:00:03;;;;;;;2.28;1.00;;;;;;;30.49;35.04;100275.41;5098403;28;20473;-69
2021/09/20 10:02:34;;;;;;;2.03;0.70;;;;;;;31.47;33.89;100269.94;5098039;28;20466;-69
2021/09/20 10:05:09;;;;;;;3.58;1.20;;;;;;;31.47;33.58;100264.19;5097716;28;20104;-68
2021/09/20 10:07:38;;;;;;;3.28;1.08;;;;;;;31.79;33.71;100265.03;5097436;28;20082;-69
2021/09/20 10:10:10;;;;;;;3.00;0.88;;;;;;;31.05;34.76;100261.84;5080798;28;20108;-68
2021/09/20 10:12:38;;;;;;;1.38;0.98;;;;;;;31.83;33.54;100267.72;5097749;28;20114;-68
2021/09/20 10:15:09;;;;;;;3.78;1.20;;;;;;;31.87;32.92;100268.31;5097511;28;20023;-69
2021/09/20 10:17:35;;;;;;;5.95;1.15;;;;;;;31.28;33.66;100266.63;5097802;28;20023;-69
2021/09/20 10:20:02;;;;;;;3.38;1.05;;;;;;;31.55;33.56;100258.81;5097601;28;20402;-68
2021/09/20 10:22:29;;;;;;;1.60;0.63;;;;;;;31.29;34.45;100265.31;5115653;28;20030;-69
2021/09/20 10:24:58;;;;;;;3.20;0.93;;;;;;;31.59;34.01;100265.13;5097517;28;20177;-69
2021/09/20 10:27:26;;;;;;;4.30;1.10;;;;;;;32.02;33.64;100268.19;5115536;28;20043;-69
2021/09/20 10:29:57;;;;;;;4.70;1.00;;;;;;;31.55;33.68;100262.47;5116071;28;20558;-68
2021/09/20 10:32:26;;;;;;;2.33;0.82;;;;;;;31.32;33.36;100263.53;5097070;28;20073;-69
2021/09/20 10:34:52;;;;;;;2.35;1.05;;;;;;;30.96;33.84;100271.41;5116202;28;20035;-69
2021/09/20 10:37:24;;;;;;;3.60;1.00;;;;;;;31.01;34.27;100264.16;5115999;28;20027;-68
2021/09/20 10:39:51;;;;;;;2.10;0.98;;;;;;;31.58;33.55;100254.91;5097299;28;20474;-69
2021/09/20 10:42:35;;;;;;;4.88;0.88;;;;;;;31.37;32.46;100247.63;5097259;28;20024;-69
2021/09/20 10:45:07;;;;;;;2.35;0.82;;;;;;;31.79;32.00;100256.41;5097829;28;20015;-69
2021/09/20 10:47:46;;;;;;;4.88;1.08;;;;;;;31.63;32.75;100254.16;5097275;28;20471;-69
2021/09/20 10:50:12;;;;;;;3.83;0.90;;;;;;;31.32;34.78;100256.97;5097110;28;20484;-69
2021/09/20 10:53:21;;;;;;;3.30;1.30;;;;;;;31.26;34.92;100249.06;5096742;28;20023;-69
2021/09/20 10:56:02;;;;;;;4.40;0.90;;;;;;;30.98;34.78;100257.34;5096884;28;20115;-69
2021/09/20 10:59:00;;;;;;;1.95;1.20;;;;;;;30.94;34.47;100251.00;5096422;28;20462;-69
2021/09/20 11:01:28;;;;;;;1.48;0.80;;;;;;;30.47;35.05;100246.44;5041908;28;20036;-69
2021/09/20 11:04:08;;;;;;;3.38;1.13;;;;;;;30.97;34.76;100258.63;5096842;28;20062;-69
2021/09/20 11:06:38;;;;;;;1.88;1.08;;;;;;;30.53;34.77;100258.78;5114532;28;20027;-69
2021/09/20 11:09:08;;;;;;;2.72;0.88;;;;;;;30.08;35.47;100265.88;5115610;28;20028;-69
2021/09/20 11:14:21;;;;;;;1.60;0.75;;;;;;;30.64;35.37;100258.94;5114328;28;20024;-69
2021/09/20 11:17:00;;;;;;;2.03;0.88;;;;;;;29.92;37.06;100258.56;5096290;28;20474;-69
2021/09/20 11:19:29;;;;;;;4.22;0.93;;;;;;;30.29;35.99;100255.28;5095826;28;20044;-69
2021/09/20 11:24:42;;;;;;;1.58;0.80;;;;;;;29.71;37.19;100258.44;5115042;28;20459;-69
2021/09/20 11:27:14;;;;;;;2.40;1.17;;;;;;;29.90;36.80;100261.13;5114937;28;20032;-69
2021/09/20 11:29:41;;;;;;;1.55;0.75;;;;;;;30.13;35.81;100265.97;5097227;28;20027;-69
2021/09/20 11:32:07;;;;;;;1.92;0.75;;;;;;;30.22;35.78;100267.97;5096417;28;20034;-69